sensor_id;sensor_type;location;lat;lon;timestamp;P1;durP1;ratioP1;P2;durP2;ratioP2
26486;SDS011;14425;56.136;40.360;2023-02-14T00:01:49;1.80;;;1.00;;
26486;SDS011;14425;56.136;40.360;2023-02-14T00:04:16;2.33;;;1.45;;
26486;SDS011;14425;56.136;40.360;2023-02-14T00:06:42;2.00;;;1.35;;
26486;SDS011;14425;56.136;40.360;2023-02-14T00:09:12;2.72;;;1.33;;
26486;SDS011;14425;56.136;40.360;2023-02-14T00:11:40;1.15;;;1.05;;
26486;SDS011;14425;56.136;40.360;2023-02-14T00:14:05;3.45;;;1.48;;
26486;SDS011;14425;56.136;40.360;2023-02-14T00:16:50;1.33;;;1.02;;
26486;SDS011;14425;56.136;40.360;2023-02-14T00:19:16;1.60;;;1.20;;
26486;SDS011;14425;56.136;40.360;2023-02-14T00:21:43;1.00;;;0.90;;
26486;SDS011;14425;56.136;40.360;2023-02-14T00:24:10;1.42;;;0.77;;
26486;SDS011;14425;56.136;40.360;2023-02-14T00:26:38;1.50;;;1.10;;
26486;SDS011;14425;56.136;40.360;2023-02-14T00:29:09;1.60;;;1.00;;
26486;SDS011;14425;56.136;40.360;2023-02-14T00:31:37;1.75;;;1.10;;
26486;SDS011;14425;56.136;40.360;2023-02-14T00:34:03;1.65;;;1.20;;
26486;SDS011;14425;56.136;40.360;2023-02-14T00:36:30;1.05;;;0.73;;
26486;SDS011;14425;56.136;40.360;2023-02-14T00:38:56;1.77;;;1.20;;
26486;SDS011;14425;56.136;40.360;2023-02-14T00:41:22;1.90;;;1.02;;
26486;SDS011;14425;56.136;40.360;2023-02-14T00:43:48;1.67;;;1.38;;
26486;SDS011;14425;56.136;40.360;2023-02-14T00:46:19;2.50;;;1.10;;
26486;SDS011;14425;56.136;40.360;2023-02-14T00:48:46;1.33;;;0.90;;
26486;SDS011;14425;56.136;40.360;2023-02-14T00:51:12;0.57;;;0.57;;
26486;SDS011;14425;56.136;40.360;2023-02-14T00:53:38;2.70;;;1.23;;
26486;SDS011;14425;56.136;40.360;2023-02-14T00:56:04;2.30;;;1.85;;
26486;SDS011;14425;56.136;40.360;2023-02-14T00:58:29;2.03;;;0.82;;
26486;SDS011;14425;56.136;40.360;2023-02-14T01:00:56;2.92;;;1.02;;
26486;SDS011;14425;56.136;40.360;2023-02-14T01:03:22;1.85;;;1.23;;
26486;SDS011;14425;56.136;40.360;2023-02-14T01:05:48;1.83;;;1.17;;
26486;SDS011;14425;56.136;40.360;2023-02-14T01:08:14;2.45;;;1.20;;
26486;SDS011;14425;56.136;40.360;2023-02-14T01:10:40;1.50;;;0.73;;
26486;SDS011;14425;56.136;40.360;2023-02-14T01:13:06;1.27;;;0.85;;
26486;SDS011;14425;56.136;40.360;2023-02-14T01:15:32;1.20;;;0.90;;
26486;SDS011;14425;56.136;40.360;2023-02-14T01:17:58;1.92;;;1.02;;
26486;SDS011;14425;56.136;40.360;2023-02-14T01:20:24;2.95;;;0.90;;
26486;SDS011;14425;56.136;40.360;2023-02-14T01:22:51;1.70;;;0.93;;
26486;SDS011;14425;56.136;40.360;2023-02-14T01:25:17;2.40;;;1.00;;
26486;SDS011;14425;56.136;40.360;2023-02-14T01:27:42;1.13;;;0.90;;
26486;SDS011;14425;56.136;40.360;2023-02-14T01:30:08;1.25;;;1.13;;
26486;SDS011;14425;56.136;40.360;2023-02-14T01:32:35;2.63;;;0.77;;
26486;SDS011;14425;56.136;40.360;2023-02-14T01:35:00;2.85;;;0.80;;
26486;SDS011;14425;56.136;40.360;2023-02-14T01:37:26;1.30;;;1.05;;
26486;SDS011;14425;56.136;40.360;2023-02-14T01:39:53;1.02;;;0.70;;
26486;SDS011;14425;56.136;40.360;2023-02-14T01:42:18;2.30;;;1.17;;
26486;SDS011;14425;56.136;40.360;2023-02-14T01:47:09;1.33;;;0.60;;
26486;SDS011;14425;56.136;40.360;2023-02-14T01:49:37;2.65;;;0.80;;
26486;SDS011;14425;56.136;40.360;2023-02-14T01:52:16;1.27;;;0.70;;
26486;SDS011;14425;56.136;40.360;2023-02-14T01:54:51;2.28;;;0.80;;
26486;SDS011;14425;56.136;40.360;2023-02-14T01:57:23;1.35;;;0.90;;
26486;SDS011;14425;56.136;40.360;2023-02-14T01:59:57;2.58;;;1.08;;
26486;SDS011;14425;56.136;40.360;2023-02-14T02:02:44;0.98;;;0.88;;
26486;SDS011;14425;56.136;40.360;2023-02-14T02:05:10;1.23;;;0.68;;
26486;SDS011;14425;56.136;40.360;2023-02-14T02:07:38;1.77;;;1.00;;
26486;SDS011;14425;56.136;40.360;2023-02-14T02:10:04;1.30;;;1.10;;
26486;SDS011;14425;56.136;40.360;2023-02-14T02:12:31;3.13;;;1.10;;
26486;SDS011;14425;56.136;40.360;2023-02-14T02:14:59;1.38;;;0.75;;
26486;SDS011;14425;56.136;40.360;2023-02-14T02:17:37;1.00;;;0.80;;
26486;SDS011;14425;56.136;40.360;2023-02-14T02:34:52;3.13;;;1.15;;
26486;SDS011;14425;56.136;40.360;2023-02-14T02:46:00;2.30;;;1.02;;
26486;SDS011;14425;56.136;40.360;2023-02-14T02:51:33;2.97;;;1.05;;
26486;SDS011;14425;56.136;40.360;2023-02-14T02:54:25;1.10;;;0.85;;
26486;SDS011;14425;56.136;40.360;2023-02-14T02:56:59;2.30;;;1.02;;
26486;SDS011;14425;56.136;40.360;2023-02-14T02:59:29;1.75;;;1.20;;
26486;SDS011;14425;56.136;40.360;2023-02-14T03:02:00;3.85;;;1.40;;
26486;SDS011;14425;56.136;40.360;2023-02-14T03:04:34;2.85;;;1.30;;
26486;SDS011;14425;56.136;40.360;2023-02-14T03:07:17;1.70;;;0.95;;
26486;SDS011;14425;56.136;40.360;2023-02-14T03:10:19;2.13;;;1.02;;
26486;SDS011;14425;56.136;40.360;2023-02-14T03:24:12;1.02;;;1.02;;
26486;SDS011;14425;56.136;40.360;2023-02-14T03:29:40;2.78;;;1.50;;
26486;SDS011;14425;56.136;40.360;2023-02-14T03:41:06;3.45;;;1.85;;
26486;SDS011;14425;56.136;40.360;2023-02-14T03:43:41;2.92;;;1.98;;
26486;SDS011;14425;56.136;40.360;2023-02-14T03:46:24;4.15;;;1.45;;
26486;SDS011;14425;56.136;40.360;2023-02-14T03:48:52;1.92;;;1.40;;
26486;SDS011;14425;56.136;40.360;2023-02-14T03:51:21;3.45;;;1.65;;
26486;SDS011;14425;56.136;40.360;2023-02-14T03:53:49;3.40;;;1.23;;
26486;SDS011;14425;56.136;40.360;2023-02-14T03:58:55;4.68;;;1.63;;
26486;SDS011;14425;56.136;40.360;2023-02-14T04:01:27;3.25;;;1.23;;
26486;SDS011;14425;56.136;40.360;2023-02-14T04:03:56;2.53;;;1.38;;
26486;SDS011;14425;56.136;40.360;2023-02-14T04:06:23;2.65;;;1.55;;
26486;SDS011;14425;56.136;40.360;2023-02-14T04:08:48;3.20;;;1.50;;
26486;SDS011;14425;56.136;40.360;2023-02-14T04:11:14;4.28;;;1.42;;
26486;SDS011;14425;56.136;40.360;2023-02-14T04:13:40;3.53;;;1.38;;
26486;SDS011;14425;56.136;40.360;2023-02-14T04:16:05;2.30;;;1.20;;
26486;SDS011;14425;56.136;40.360;2023-02-14T04:18:31;1.95;;;0.82;;
26486;SDS011;14425;56.136;40.360;2023-02-14T04:21:15;6.03;;;1.38;;
26486;SDS011;14425;56.136;40.360;2023-02-14T04:23:41;2.97;;;1.58;;
26486;SDS011;14425;56.136;40.360;2023-02-14T04:26:06;2.67;;;1.35;;
26486;SDS011;14425;56.136;40.360;2023-02-14T04:28:32;2.50;;;1.23;;
26486;SDS011;14425;56.136;40.360;2023-02-14T04:31:02;5.15;;;1.60;;
26486;SDS011;14425;56.136;40.360;2023-02-14T04:33:28;1.33;;;1.13;;
26486;SDS011;14425;56.136;40.360;2023-02-14T04:35:54;2.78;;;1.25;;
26486;SDS011;14425;56.136;40.360;2023-02-14T04:38:20;4.32;;;1.42;;
26486;SDS011;14425;56.136;40.360;2023-02-14T04:40:47;2.45;;;1.35;;
26486;SDS011;14425;56.136;40.360;2023-02-14T04:43:14;2.38;;;1.50;;
26486;SDS011;14425;56.136;40.360;2023-02-14T04:45:40;1.85;;;1.30;;
26486;SDS011;14425;56.136;40.360;2023-02-14T04:48:05;1.27;;;0.98;;
26486;SDS011;14425;56.136;40.360;2023-02-14T04:50:30;2.45;;;1.25;;
26486;SDS011;14425;56.136;40.360;2023-02-14T04:52:56;3.00;;;0.90;;
26486;SDS011;14425;56.136;40.360;2023-02-14T04:55:21;4.38;;;2.10;;
26486;SDS011;14425;56.136;40.360;2023-02-14T04:57:47;2.13;;;1.42;;
26486;SDS011;14425;56.136;40.360;2023-02-14T05:00:13;3.83;;;1.40;;
26486;SDS011;14425;56.136;40.360;2023-02-14T05:02:38;2.13;;;1.23;;
26486;SDS011;14425;56.136;40.360;2023-02-14T05:05:04;2.63;;;1.67;;
26486;SDS011;14425;56.136;40.360;2023-02-14T05:07:30;3.08;;;1.20;;
26486;SDS011;14425;56.136;40.360;2023-02-14T05:09:55;8.63;;;1.40;;
26486;SDS011;14425;56.136;40.360;2023-02-14T05:12:21;2.20;;;0.90;;
26486;SDS011;14425;56.136;40.360;2023-02-14T05:14:46;2.55;;;1.42;;
26486;SDS011;14425;56.136;40.360;2023-02-14T05:17:12;2.60;;;1.50;;
26486;SDS011;14425;56.136;40.360;2023-02-14T05:19:37;3.40;;;1.58;;
26486;SDS011;14425;56.136;40.360;2023-02-14T05:22:03;2.22;;;0.95;;
26486;SDS011;14425;56.136;40.360;2023-02-14T05:24:28;2.75;;;1.27;;
26486;SDS011;14425;56.136;40.360;2023-02-14T05:26:54;3.40;;;1.33;;
26486;SDS011;14425;56.136;40.360;2023-02-14T05:29:19;2.53;;;1.42;;
26486;SDS011;14425;56.136;40.360;2023-02-14T05:31:45;4.85;;;1.58;;
26486;SDS011;14425;56.136;40.360;2023-02-14T05:34:10;3.03;;;1.40;;
26486;SDS011;14425;56.136;40.360;2023-02-14T05:36:36;4.70;;;1.30;;
26486;SDS011;14425;56.136;40.360;2023-02-14T05:39:01;3.83;;;1.55;;
26486;SDS011;14425;56.136;40.360;2023-02-14T05:41:27;3.42;;;1.08;;
26486;SDS011;14425;56.136;40.360;2023-02-14T05:43:53;3.42;;;1.20;;
26486;SDS011;14425;56.136;40.360;2023-02-14T05:46:18;3.85;;;1.70;;
26486;SDS011;14425;56.136;40.360;2023-02-14T05:48:44;3.72;;;1.63;;
26486;SDS011;14425;56.136;40.360;2023-02-14T05:51:09;3.20;;;1.70;;
26486;SDS011;14425;56.136;40.360;2023-02-14T05:53:35;3.75;;;1.55;;
26486;SDS011;14425;56.136;40.360;2023-02-14T05:56:01;5.50;;;1.55;;
26486;SDS011;14425;56.136;40.360;2023-02-14T05:58:27;3.45;;;1.20;;
26486;SDS011;14425;56.136;40.360;2023-02-14T06:00:52;2.47;;;1.08;;
26486;SDS011;14425;56.136;40.360;2023-02-14T06:03:19;5.22;;;1.30;;
26486;SDS011;14425;56.136;40.360;2023-02-14T06:05:45;4.25;;;1.73;;
26486;SDS011;14425;56.136;40.360;2023-02-14T06:08:10;4.13;;;1.65;;
26486;SDS011;14425;56.136;40.360;2023-02-14T06:10:36;3.95;;;1.10;;
26486;SDS011;14425;56.136;40.360;2023-02-14T06:13:01;2.55;;;1.40;;
26486;SDS011;14425;56.136;40.360;2023-02-14T06:15:27;3.42;;;1.42;;
26486;SDS011;14425;56.136;40.360;2023-02-14T06:17:53;4.88;;;1.48;;
26486;SDS011;14425;56.136;40.360;2023-02-14T06:20:19;3.53;;;1.40;;
26486;SDS011;14425;56.136;40.360;2023-02-14T06:22:46;2.55;;;1.80;;
26486;SDS011;14425;56.136;40.360;2023-02-14T06:25:11;1.90;;;1.30;;
26486;SDS011;14425;56.136;40.360;2023-02-14T06:27:37;2.17;;;1.17;;
26486;SDS011;14425;56.136;40.360;2023-02-14T06:30:03;3.15;;;1.40;;
26486;SDS011;14425;56.136;40.360;2023-02-14T06:32:29;4.15;;;1.10;;
26486;SDS011;14425;56.136;40.360;2023-02-14T06:34:55;4.38;;;1.38;;
26486;SDS011;14425;56.136;40.360;2023-02-14T06:37:20;2.30;;;1.08;;
26486;SDS011;14425;56.136;40.360;2023-02-14T06:39:46;1.45;;;0.80;;
26486;SDS011;14425;56.136;40.360;2023-02-14T06:42:11;7.70;;;1.17;;
26486;SDS011;14425;56.136;40.360;2023-02-14T06:44:37;3.05;;;1.35;;
26486;SDS011;14425;56.136;40.360;2023-02-14T06:47:02;3.33;;;1.38;;
26486;SDS011;14425;56.136;40.360;2023-02-14T06:49:28;2.10;;;1.13;;
26486;SDS011;14425;56.136;40.360;2023-02-14T06:51:54;3.47;;;1.75;;
26486;SDS011;14425;56.136;40.360;2023-02-14T06:54:19;2.65;;;1.40;;
26486;SDS011;14425;56.136;40.360;2023-02-14T06:56:45;2.60;;;1.38;;
26486;SDS011;14425;56.136;40.360;2023-02-14T06:59:10;1.75;;;0.77;;
26486;SDS011;14425;56.136;40.360;2023-02-14T07:01:36;2.47;;;1.10;;
26486;SDS011;14425;56.136;40.360;2023-02-14T07:04:01;2.45;;;0.70;;
26486;SDS011;14425;56.136;40.360;2023-02-14T07:06:27;2.00;;;1.10;;
26486;SDS011;14425;56.136;40.360;2023-02-14T07:08:52;1.42;;;1.08;;
26486;SDS011;14425;56.136;40.360;2023-02-14T07:11:18;5.35;;;0.95;;
26486;SDS011;14425;56.136;40.360;2023-02-14T07:13:44;1.83;;;1.17;;
26486;SDS011;14425;56.136;40.360;2023-02-14T07:16:10;2.70;;;1.45;;
26486;SDS011;14425;56.136;40.360;2023-02-14T07:18:35;5.07;;;1.10;;
26486;SDS011;14425;56.136;40.360;2023-02-14T07:21:01;5.82;;;1.98;;
26486;SDS011;14425;56.136;40.360;2023-02-14T07:23:27;2.78;;;1.00;;
26486;SDS011;14425;56.136;40.360;2023-02-14T07:25:53;2.83;;;1.60;;
26486;SDS011;14425;56.136;40.360;2023-02-14T07:28:19;4.40;;;1.30;;
26486;SDS011;14425;56.136;40.360;2023-02-14T07:30:47;5.70;;;1.50;;
26486;SDS011;14425;56.136;40.360;2023-02-14T07:33:13;3.42;;;1.40;;
26486;SDS011;14425;56.136;40.360;2023-02-14T07:35:38;3.88;;;1.70;;
26486;SDS011;14425;56.136;40.360;2023-02-14T07:38:04;3.90;;;1.63;;
26486;SDS011;14425;56.136;40.360;2023-02-14T07:40:29;3.78;;;2.20;;
26486;SDS011;14425;56.136;40.360;2023-02-14T07:42:56;3.90;;;1.23;;
26486;SDS011;14425;56.136;40.360;2023-02-14T07:45:22;5.95;;;1.83;;
26486;SDS011;14425;56.136;40.360;2023-02-14T07:47:49;4.85;;;1.67;;
26486;SDS011;14425;56.136;40.360;2023-02-14T07:50:18;2.45;;;1.52;;
26486;SDS011;14425;56.136;40.360;2023-02-14T07:52:44;3.45;;;1.90;;
26486;SDS011;14425;56.136;40.360;2023-02-14T07:55:10;1.92;;;1.38;;
26486;SDS011;14425;56.136;40.360;2023-02-14T07:57:36;4.43;;;1.30;;
26486;SDS011;14425;56.136;40.360;2023-02-14T08:00:02;2.22;;;1.30;;
26486;SDS011;14425;56.136;40.360;2023-02-14T08:02:29;3.42;;;1.63;;
26486;SDS011;14425;56.136;40.360;2023-02-14T08:04:54;4.45;;;1.55;;
26486;SDS011;14425;56.136;40.360;2023-02-14T08:07:20;3.38;;;1.05;;
26486;SDS011;14425;56.136;40.360;2023-02-14T08:09:52;2.58;;;0.90;;
26486;SDS011;14425;56.136;40.360;2023-02-14T08:12:20;4.13;;;1.40;;
26486;SDS011;14425;56.136;40.360;2023-02-14T08:15:07;6.72;;;1.85;;
26486;SDS011;14425;56.136;40.360;2023-02-14T08:17:57;3.15;;;1.40;;
26486;SDS011;14425;56.136;40.360;2023-02-14T08:20:22;2.80;;;1.30;;
26486;SDS011;14425;56.136;40.360;2023-02-14T08:22:48;4.00;;;1.75;;
26486;SDS011;14425;56.136;40.360;2023-02-14T08:25:14;5.70;;;1.40;;
26486;SDS011;14425;56.136;40.360;2023-02-14T08:27:39;2.63;;;1.55;;
26486;SDS011;14425;56.136;40.360;2023-02-14T08:30:05;2.58;;;1.58;;
26486;SDS011;14425;56.136;40.360;2023-02-14T08:32:32;3.13;;;1.27;;
26486;SDS011;14425;56.136;40.360;2023-02-14T08:34:58;3.83;;;1.80;;
26486;SDS011;14425;56.136;40.360;2023-02-14T08:37:23;3.80;;;1.70;;
26486;SDS011;14425;56.136;40.360;2023-02-14T08:39:49;4.28;;;2.30;;
26486;SDS011;14425;56.136;40.360;2023-02-14T08:42:14;5.32;;;2.70;;
26486;SDS011;14425;56.136;40.360;2023-02-14T08:44:39;3.80;;;1.98;;
26486;SDS011;14425;56.136;40.360;2023-02-14T08:47:05;3.08;;;1.88;;
26486;SDS011;14425;56.136;40.360;2023-02-14T08:49:31;3.67;;;2.10;;
26486;SDS011;14425;56.136;40.360;2023-02-14T08:51:56;6.85;;;1.95;;
26486;SDS011;14425;56.136;40.360;2023-02-14T08:54:22;2.53;;;1.27;;
26486;SDS011;14425;56.136;40.360;2023-02-14T08:56:47;3.90;;;1.30;;
26486;SDS011;14425;56.136;40.360;2023-02-14T08:59:13;1.73;;;1.25;;
26486;SDS011;14425;56.136;40.360;2023-02-14T09:01:38;3.85;;;1.63;;
26486;SDS011;14425;56.136;40.360;2023-02-14T09:04:04;2.10;;;1.23;;
26486;SDS011;14425;56.136;40.360;2023-02-14T09:06:30;2.53;;;1.70;;
26486;SDS011;14425;56.136;40.360;2023-02-14T09:08:56;3.47;;;1.83;;
26486;SDS011;14425;56.136;40.360;2023-02-14T09:11:22;6.00;;;1.55;;
26486;SDS011;14425;56.136;40.360;2023-02-14T09:13:49;5.57;;;1.75;;
26486;SDS011;14425;56.136;40.360;2023-02-14T09:16:17;6.43;;;1.42;;
26486;SDS011;14425;56.136;40.360;2023-02-14T09:18:44;3.67;;;1.77;;
26486;SDS011;14425;56.136;40.360;2023-02-14T09:21:15;4.45;;;1.70;;
26486;SDS011;14425;56.136;40.360;2023-02-14T09:23:43;4.85;;;1.50;;
26486;SDS011;14425;56.136;40.360;2023-02-14T09:26:09;2.60;;;1.48;;
26486;SDS011;14425;56.136;40.360;2023-02-14T09:28:36;2.97;;;2.20;;
26486;SDS011;14425;56.136;40.360;2023-02-14T09:33:35;2.10;;;1.25;;
26486;SDS011;14425;56.136;40.360;2023-02-14T09:36:01;3.72;;;1.48;;
26486;SDS011;14425;56.136;40.360;2023-02-14T09:38:45;7.03;;;1.70;;
26486;SDS011;14425;56.136;40.360;2023-02-14T09:41:45;5.15;;;1.42;;
26486;SDS011;14425;56.136;40.360;2023-02-14T09:46:49;4.00;;;1.88;;
26486;SDS011;14425;56.136;40.360;2023-02-14T09:49:21;3.53;;;1.70;;
26486;SDS011;14425;56.136;40.360;2023-02-14T09:51:55;3.10;;;2.03;;
26486;SDS011;14425;56.136;40.360;2023-02-14T09:54:23;4.25;;;1.55;;
26486;SDS011;14425;56.136;40.360;2023-02-14T10:07:26;1.83;;;0.88;;
26486;SDS011;14425;56.136;40.360;2023-02-14T10:10:15;3.05;;;1.40;;
26486;SDS011;14425;56.136;40.360;2023-02-14T10:12:54;3.40;;;1.70;;
26486;SDS011;14425;56.136;40.360;2023-02-14T10:15:43;4.32;;;2.15;;
26486;SDS011;14425;56.136;40.360;2023-02-14T10:18:16;4.13;;;1.80;;
26486;SDS011;14425;56.136;40.360;2023-02-14T10:20:55;4.53;;;1.35;;
26486;SDS011;14425;56.136;40.360;2023-02-14T10:23:35;2.25;;;1.00;;
26486;SDS011;14425;56.136;40.360;2023-02-14T10:26:10;2.20;;;1.42;;
26486;SDS011;14425;56.136;40.360;2023-02-14T10:28:41;3.42;;;1.40;;
26486;SDS011;14425;56.136;40.360;2023-02-14T10:31:19;5.40;;;1.33;;
26486;SDS011;14425;56.136;40.360;2023-02-14T10:34:32;2.72;;;1.40;;
26486;SDS011;14425;56.136;40.360;2023-02-14T10:36:57;3.25;;;1.33;;
26486;SDS011;14425;56.136;40.360;2023-02-14T10:42:10;1.50;;;0.93;;
26486;SDS011;14425;56.136;40.360;2023-02-14T10:45:04;1.67;;;0.90;;
26486;SDS011;14425;56.136;40.360;2023-02-14T10:52:39;1.75;;;0.70;;
26486;SDS011;14425;56.136;40.360;2023-02-14T10:58:06;3.70;;;0.88;;
26486;SDS011;14425;56.136;40.360;2023-02-14T11:00:40;2.13;;;0.90;;
26486;SDS011;14425;56.136;40.360;2023-02-14T11:03:20;1.17;;;0.80;;
26486;SDS011;14425;56.136;40.360;2023-02-14T11:05:46;1.67;;;0.82;;
26486;SDS011;14425;56.136;40.360;2023-02-14T11:10:51;2.92;;;0.80;;
26486;SDS011;14425;56.136;40.360;2023-02-14T11:18:22;2.50;;;0.70;;
26486;SDS011;14425;56.136;40.360;2023-02-14T11:20:58;0.40;;;0.40;;
26486;SDS011;14425;56.136;40.360;2023-02-14T11:23:27;1.15;;;0.73;;
26486;SDS011;14425;56.136;40.360;2023-02-14T11:25:58;1.02;;;0.52;;
26486;SDS011;14425;56.136;40.360;2023-02-14T11:28:24;4.90;;;0.88;;
26486;SDS011;14425;56.136;40.360;2023-02-14T11:30:51;2.15;;;0.70;;
26486;SDS011;14425;56.136;40.360;2023-02-14T11:33:27;0.65;;;0.50;;
26486;SDS011;14425;56.136;40.360;2023-02-14T11:35:58;2.20;;;0.50;;
26486;SDS011;14425;56.136;40.360;2023-02-14T11:41:06;2.38;;;0.70;;
26486;SDS011;14425;56.136;40.360;2023-02-14T11:43:35;0.80;;;0.40;;
26486;SDS011;14425;56.136;40.360;2023-02-14T11:48:53;1.42;;;0.70;;
26486;SDS011;14425;56.136;40.360;2023-02-14T11:51:32;2.50;;;1.30;;
26486;SDS011;14425;56.136;40.360;2023-02-14T11:54:01;2.80;;;0.95;;
26486;SDS011;14425;56.136;40.360;2023-02-14T11:56:48;2.15;;;0.80;;
26486;SDS011;14425;56.136;40.360;2023-02-14T11:59:24;3.35;;;1.15;;
26486;SDS011;14425;56.136;40.360;2023-02-14T12:01:55;1.60;;;1.10;;
26486;SDS011;14425;56.136;40.360;2023-02-14T12:04:43;1.77;;;0.70;;
26486;SDS011;14425;56.136;40.360;2023-02-14T12:07:13;2.28;;;0.88;;
26486;SDS011;14425;56.136;40.360;2023-02-14T12:09:40;1.83;;;0.63;;
26486;SDS011;14425;56.136;40.360;2023-02-14T12:12:40;3.30;;;1.00;;
26486;SDS011;14425;56.136;40.360;2023-02-14T12:17:48;3.65;;;1.20;;
26486;SDS011;14425;56.136;40.360;2023-02-14T12:23:17;3.75;;;1.20;;
26486;SDS011;14425;56.136;40.360;2023-02-14T12:29:11;3.58;;;1.58;;
26486;SDS011;14425;56.136;40.360;2023-02-14T12:31:46;5.80;;;5.00;;
26486;SDS011;14425;56.136;40.360;2023-02-14T12:34:15;3.08;;;1.33;;
26486;SDS011;14425;56.136;40.360;2023-02-14T12:47:45;1.83;;;1.20;;
26486;SDS011;14425;56.136;40.360;2023-02-14T12:50:39;2.97;;;1.52;;
26486;SDS011;14425;56.136;40.360;2023-02-14T13:01:48;3.70;;;1.90;;
26486;SDS011;14425;56.136;40.360;2023-02-14T13:07:47;6.43;;;2.05;;
26486;SDS011;14425;56.136;40.360;2023-02-14T13:13:45;3.33;;;1.45;;
26486;SDS011;14425;56.136;40.360;2023-02-14T13:19:34;5.63;;;1.85;;
26486;SDS011;14425;56.136;40.360;2023-02-14T13:22:00;2.05;;;1.40;;
26486;SDS011;14425;56.136;40.360;2023-02-14T13:24:33;2.97;;;1.70;;
26486;SDS011;14425;56.136;40.360;2023-02-14T13:27:17;5.45;;;1.73;;
26486;SDS011;14425;56.136;40.360;2023-02-14T13:29:50;2.40;;;1.50;;
26486;SDS011;14425;56.136;40.360;2023-02-14T13:32:21;3.83;;;2.30;;
26486;SDS011;14425;56.136;40.360;2023-02-14T13:34:50;2.72;;;1.42;;
26486;SDS011;14425;56.136;40.360;2023-02-14T13:37:20;2.72;;;1.70;;
26486;SDS011;14425;56.136;40.360;2023-02-14T13:42:19;4.30;;;2.70;;
26486;SDS011;14425;56.136;40.360;2023-02-14T13:50:57;2.08;;;1.70;;
26486;SDS011;14425;56.136;40.360;2023-02-14T13:53:31;3.67;;;1.40;;
26486;SDS011;14425;56.136;40.360;2023-02-14T13:56:04;3.13;;;2.00;;
26486;SDS011;14425;56.136;40.360;2023-02-14T13:58:52;1.83;;;1.42;;
26486;SDS011;14425;56.136;40.360;2023-02-14T14:04:05;2.08;;;1.15;;
26486;SDS011;14425;56.136;40.360;2023-02-14T14:07:31;2.75;;;1.58;;
26486;SDS011;14425;56.136;40.360;2023-02-14T14:19:59;5.82;;;2.22;;
26486;SDS011;14425;56.136;40.360;2023-02-14T14:22:26;2.97;;;2.35;;
26486;SDS011;14425;56.136;40.360;2023-02-14T14:24:56;3.75;;;1.80;;
26486;SDS011;14425;56.136;40.360;2023-02-14T14:29:58;2.25;;;1.23;;
26486;SDS011;14425;56.136;40.360;2023-02-14T14:34:57;4.22;;;1.73;;
26486;SDS011;14425;56.136;40.360;2023-02-14T14:37:30;4.28;;;1.85;;
26486;SDS011;14425;56.136;40.360;2023-02-14T14:40:02;4.55;;;1.90;;
26486;SDS011;14425;56.136;40.360;2023-02-14T14:42:37;5.18;;;2.17;;
26486;SDS011;14425;56.136;40.360;2023-02-14T14:45:23;3.83;;;2.65;;
26486;SDS011;14425;56.136;40.360;2023-02-14T14:47:52;5.05;;;3.00;;
26486;SDS011;14425;56.136;40.360;2023-02-14T14:50:22;4.88;;;2.80;;
26486;SDS011;14425;56.136;40.360;2023-02-14T14:52:50;6.28;;;3.10;;
26486;SDS011;14425;56.136;40.360;2023-02-14T14:55:32;6.43;;;3.38;;
26486;SDS011;14425;56.136;40.360;2023-02-14T14:58:02;4.85;;;2.75;;
26486;SDS011;14425;56.136;40.360;2023-02-14T15:00:34;6.25;;;3.40;;
26486;SDS011;14425;56.136;40.360;2023-02-14T15:05:47;3.47;;;2.55;;
26486;SDS011;14425;56.136;40.360;2023-02-14T15:08:16;4.68;;;2.67;;
26486;SDS011;14425;56.136;40.360;2023-02-14T15:11:23;3.78;;;2.20;;
26486;SDS011;14425;56.136;40.360;2023-02-14T15:14:12;4.78;;;2.47;;
26486;SDS011;14425;56.136;40.360;2023-02-14T15:16:52;3.85;;;2.72;;
26486;SDS011;14425;56.136;40.360;2023-02-14T15:21:47;3.72;;;2.28;;
26486;SDS011;14425;56.136;40.360;2023-02-14T15:24:13;3.97;;;2.35;;
26486;SDS011;14425;56.136;40.360;2023-02-14T15:26:44;6.40;;;2.80;;
26486;SDS011;14425;56.136;40.360;2023-02-14T15:29:24;4.90;;;3.23;;
26486;SDS011;14425;56.136;40.360;2023-02-14T15:31:52;5.85;;;3.80;;
26486;SDS011;14425;56.136;40.360;2023-02-14T15:34:23;5.60;;;3.00;;
26486;SDS011;14425;56.136;40.360;2023-02-14T15:36:51;6.15;;;3.28;;
26486;SDS011;14425;56.136;40.360;2023-02-14T15:39:22;5.43;;;2.92;;
26486;SDS011;14425;56.136;40.360;2023-02-14T15:41:59;3.65;;;2.58;;
26486;SDS011;14425;56.136;40.360;2023-02-14T15:44:25;3.40;;;2.58;;
26486;SDS011;14425;56.136;40.360;2023-02-14T15:47:00;4.57;;;3.33;;
26486;SDS011;14425;56.136;40.360;2023-02-14T15:49:34;4.10;;;2.53;;
26486;SDS011;14425;56.136;40.360;2023-02-14T15:52:03;4.25;;;2.70;;
26486;SDS011;14425;56.136;40.360;2023-02-14T15:57:21;4.45;;;3.20;;
26486;SDS011;14425;56.136;40.360;2023-02-14T15:59:50;7.57;;;3.60;;
26486;SDS011;14425;56.136;40.360;2023-02-14T16:05:12;5.35;;;2.92;;
26486;SDS011;14425;56.136;40.360;2023-02-14T16:07:39;3.85;;;2.90;;
26486;SDS011;14425;56.136;40.360;2023-02-14T16:12:59;5.45;;;2.55;;
26486;SDS011;14425;56.136;40.360;2023-02-14T16:15:27;4.13;;;2.38;;
26486;SDS011;14425;56.136;40.360;2023-02-14T16:17:56;4.93;;;2.75;;
26486;SDS011;14425;56.136;40.360;2023-02-14T16:23:19;4.78;;;2.83;;
26486;SDS011;14425;56.136;40.360;2023-02-14T16:25:45;4.63;;;2.78;;
26486;SDS011;14425;56.136;40.360;2023-02-14T16:28:13;5.22;;;3.05;;
26486;SDS011;14425;56.136;40.360;2023-02-14T16:30:39;4.45;;;2.90;;
26486;SDS011;14425;56.136;40.360;2023-02-14T16:33:08;7.63;;;3.40;;
26486;SDS011;14425;56.136;40.360;2023-02-14T16:35:46;6.20;;;3.63;;
26486;SDS011;14425;56.136;40.360;2023-02-14T16:38:14;4.07;;;2.67;;
26486;SDS011;14425;56.136;40.360;2023-02-14T16:40:42;4.35;;;3.10;;
26486;SDS011;14425;56.136;40.360;2023-02-14T16:43:11;5.65;;;2.85;;
26486;SDS011;14425;56.136;40.360;2023-02-14T16:45:38;4.45;;;2.60;;
26486;SDS011;14425;56.136;40.360;2023-02-14T16:48:04;6.32;;;2.95;;
26486;SDS011;14425;56.136;40.360;2023-02-14T16:50:32;5.88;;;2.63;;
26486;SDS011;14425;56.136;40.360;2023-02-14T16:53:02;4.60;;;2.55;;
26486;SDS011;14425;56.136;40.360;2023-02-14T16:55:29;6.75;;;2.85;;
26486;SDS011;14425;56.136;40.360;2023-02-14T16:57:55;3.38;;;2.38;;
26486;SDS011;14425;56.136;40.360;2023-02-14T17:00:23;3.15;;;1.98;;
26486;SDS011;14425;56.136;40.360;2023-02-14T17:02:53;6.22;;;2.67;;
26486;SDS011;14425;56.136;40.360;2023-02-14T17:05:30;5.85;;;2.20;;
26486;SDS011;14425;56.136;40.360;2023-02-14T17:07:57;3.83;;;2.03;;
26486;SDS011;14425;56.136;40.360;2023-02-14T17:10:22;4.15;;;1.90;;
26486;SDS011;14425;56.136;40.360;2023-02-14T17:12:48;4.93;;;2.15;;
26486;SDS011;14425;56.136;40.360;2023-02-14T17:15:16;3.10;;;2.20;;
26486;SDS011;14425;56.136;40.360;2023-02-14T17:17:44;4.22;;;2.22;;
26486;SDS011;14425;56.136;40.360;2023-02-14T17:20:11;4.68;;;2.00;;
26486;SDS011;14425;56.136;40.360;2023-02-14T17:22:37;3.38;;;2.40;;
26486;SDS011;14425;56.136;40.360;2023-02-14T17:25:06;3.00;;;2.70;;
26486;SDS011;14425;56.136;40.360;2023-02-14T17:27:32;2.78;;;2.45;;
26486;SDS011;14425;56.136;40.360;2023-02-14T17:29:58;3.28;;;1.67;;
26486;SDS011;14425;56.136;40.360;2023-02-14T17:32:23;3.95;;;2.15;;
26486;SDS011;14425;56.136;40.360;2023-02-14T17:34:48;4.72;;;2.38;;
26486;SDS011;14425;56.136;40.360;2023-02-14T17:37:14;5.38;;;2.58;;
26486;SDS011;14425;56.136;40.360;2023-02-14T17:39:39;6.20;;;2.30;;
26486;SDS011;14425;56.136;40.360;2023-02-14T17:42:05;4.90;;;2.50;;
26486;SDS011;14425;56.136;40.360;2023-02-14T17:44:30;5.32;;;2.40;;